Time;durP1;ratioP1;P1;durP2;ratioP2;P2;SDS_P1;SDS_P2;PMS_P1;PMS_P2;Temp;Humidity;BMP_temperature;BMP_pressure;BME280_temperature;BME280_humidity;BME280_pressure;Samples;Min_cycle;Max_cycle;Signal;HPM_P1;HPM_P2
2021/08/24 00:02:00;;;;;;;;;;;14.20;99.90;;;;;;5015582;28;19931;-71
2021/08/24 00:04:32;;;;;;;;;;;14.20;99.90;;;;;;5016422;28;20024;-72
2021/08/24 00:07:04;;;;;;;;;;;14.10;99.90;;;;;;5015130;28;19972;-73
2021/08/24 00:09:36;;;;;;;;;;;14.20;99.90;;;;;;5033141;28;20182;-72
2021/08/24 00:12:08;;;;;;;;;;;14.10;99.90;;;;;;5014982;28;20358;-71
2021/08/24 00:14:39;;;;;;;;;;;14.20;99.90;;;;;;5016450;28;20012;-72
2021/08/24 00:17:11;;;;;;;;;;;14.20;99.90;;;;;;5033090;28;19931;-72
2021/08/24 00:19:43;;;;;;;;;;;14.20;99.90;;;;;;5032915;28;19953;-72
2021/08/24 00:22:14;;;;;;;;;;;14.20;99.90;;;;;;5032731;28;19932;-72
2021/08/24 00:24:46;;;;;;;;;;;14.20;99.90;;;;;;5032843;28;19996;-72
2021/08/24 00:27:17;;;;;;;;;;;14.20;99.90;;;;;;5032527;28;19961;-72
2021/08/24 00:29:44;;;;;;;;;;;14.20;99.90;;;;;;5015122;28;19932;-72
2021/08/24 00:32:16;;;;;;;;;;;14.20;99.90;;;;;;5015075;28;19925;-72
2021/08/24 00:34:48;;;;;;;;;;;14.30;99.90;;;;;;5032598;28;19928;-73
2021/08/24 00:37:21;;;;;;;;;;;14.30;99.90;;;;;;5032373;28;19972;-74
2021/08/24 00:39:53;;;;;;;;;;;14.20;99.90;;;;;;5032599;28;20019;-72
2021/08/24 00:42:20;;;;;;;;;;;14.20;99.90;;;;;;5032522;28;19997;-72
2021/08/24 00:44:51;;;;;;;;;;;14.20;99.90;;;;;;5014767;28;19931;-72
2021/08/24 00:47:19;;;;;;;;;;;14.20;99.90;;;;;;5032145;28;19964;-74
2021/08/24 00:49:51;;;;;;;;;;;14.30;99.90;;;;;;5015656;28;19976;-72
2021/08/24 00:52:24;;;;;;;;;;;14.30;99.90;;;;;;5014612;28;19931;-72
2021/08/24 00:54:54;;;;;;;;;;;14.20;99.90;;;;;;5032333;28;19929;-72
2021/08/24 00:57:26;;;;;;;;;;;14.20;99.90;;;;;;5014334;28;20016;-71
2021/08/24 00:59:58;;;;;;;;;;;14.20;99.90;;;;;;5015188;28;19924;-72
2021/08/24 01:02:29;;;;;;;;;;;14.20;99.90;;;;;;5031720;28;19929;-72
2021/08/24 01:05:02;;;;;;;;;;;14.20;99.90;;;;;;5013903;28;19971;-73
2021/08/24 01:07:41;;;;;;;;;;;14.20;99.90;;;;;;5013838;28;20032;-72
2021/08/24 01:10:17;;;;;;;;;;;14.10;99.90;;;;;;5014141;28;19959;-72
2021/08/24 01:13:03;;;;;;;;;;;14.10;99.90;;;;;;5032050;28;20023;-73
2021/08/24 01:15:50;;;;;;;;;;;14.10;99.90;;;;;;5014163;28;20375;-72
2021/08/24 01:18:34;;;;;;;;;;;14.10;99.90;;;;;;5014484;28;19925;-73
2021/08/24 01:21:17;;;;;;;;;;;14.00;99.90;;;;;;5031449;28;20023;-72
2021/08/24 01:24:01;;;;;;;;;;;13.90;99.90;;;;;;5014300;28;19969;-72
2021/08/24 01:26:33;;;;;;;;;;;13.90;99.90;;;;;;5013422;28;20023;-72
2021/08/24 01:29:12;;;;;;;;;;;13.90;99.90;;;;;;5013595;28;19976;-72
2021/08/24 01:31:47;;;;;;;;;;;13.80;99.90;;;;;;5014629;28;20051;-72
2021/08/24 01:34:27;;;;;;;;;;;13.80;99.90;;;;;;5014126;28;20302;-72
2021/08/24 01:37:06;;;;;;;;;;;13.80;99.90;;;;;;5013791;28;20020;-72
2021/08/24 01:39:39;;;;;;;;;;;13.80;99.90;;;;;;5014186;28;20120;-72
2021/08/24 01:42:11;;;;;;;;;;;13.70;99.90;;;;;;5031733;28;20368;-72
2021/08/24 01:44:53;;;;;;;;;;;13.70;99.90;;;;;;5014855;28;19979;-72
2021/08/24 01:47:34;;;;;;;;;;;13.70;99.90;;;;;;5013310;28;20376;-72
2021/08/24 01:50:08;;;;;;;;;;;13.70;99.90;;;;;;4998328;28;20020;-72
2021/08/24 01:52:38;;;;;;;;;;;13.60;99.90;;;;;;5014007;28;19926;-72
2021/08/24 01:55:09;;;;;;;;;;;13.60;99.90;;;;;;5013779;28;20489;-74
2021/08/24 01:57:48;;;;;;;;;;;13.50;99.90;;;;;;5013874;28;19938;-72
2021/08/24 02:00:15;;;;;;;;;;;13.50;99.90;;;;;;5031713;28;20303;-72
2021/08/24 02:02:53;;;;;;;;;;;13.50;99.90;;;;;;5015174;28;19932;-74
2021/08/24 02:05:23;;;;;;;;;;;13.50;99.90;;;;;;5013501;28;20039;-72
2021/08/24 02:07:59;;;;;;;;;;;13.50;99.90;;;;;;5014646;28;19932;-72
2021/08/24 02:10:30;;;;;;;;;;;13.40;99.90;;;;;;5014101;28;20016;-72
2021/08/24 02:13:03;;;;;;;;;;;13.40;99.90;;;;;;5014842;28;19931;-73
2021/08/24 02:15:40;;;;;;;;;;;13.40;99.90;;;;;;5013564;28;20027;-72
2021/08/24 02:18:09;;;;;;;;;;;13.40;99.90;;;;;;5031696;28;20368;-72
2021/08/24 02:20:43;;;;;;;;;;;13.30;99.90;;;;;;5013818;28;19929;-73
2021/08/24 02:23:22;;;;;;;;;;;13.30;99.90;;;;;;5031372;28;19925;-74
2021/08/24 02:25:56;;;;;;;;;;;13.40;99.90;;;;;;5031158;28;20019;-72
2021/08/24 02:28:28;;;;;;;;;;;13.40;99.90;;;;;;5013623;28;20012;-73
2021/08/24 02:30:59;;;;;;;;;;;13.40;99.90;;;;;;5014009;28;19964;-71
2021/08/24 02:33:39;;;;;;;;;;;13.40;99.90;;;;;;5013700;28;20335;-72
2021/08/24 02:36:08;;;;;;;;;;;13.40;99.90;;;;;;5014779;28;20020;-72
2021/08/24 02:38:36;;;;;;;;;;;13.30;99.90;;;;;;5017570;28;20016;-71
2021/08/24 02:41:07;;;;;;;;;;;13.30;99.90;;;;;;5034954;28;20016;-74
2021/08/24 02:43:39;;;;;;;;;;;13.20;99.90;;;;;;5017039;28;19925;-72
2021/08/24 02:46:13;;;;;;;;;;;13.20;99.90;;;;;;5034482;28;19929;-72
2021/08/24 02:48:49;;;;;;;;;;;13.20;99.90;;;;;;5016918;28;19925;-73
2021/08/24 02:51:21;;;;;;;;;;;13.20;99.90;;;;;;5014695;28;19932;-74
2021/08/24 02:53:52;;;;;;;;;;;13.10;99.90;;;;;;5034563;28;20016;-72
2021/08/24 02:56:25;;;;;;;;;;;13.10;99.90;;;;;;5016469;28;19925;-73
2021/08/24 02:58:56;;;;;;;;;;;13.10;99.90;;;;;;5034444;28;19932;-72
2021/08/24 03:01:28;;;;;;;;;;;13.10;99.90;;;;;;5016897;28;20036;-72
2021/08/24 03:04:00;;;;;;;;;;;13.10;99.90;;;;;;5016507;28;19925;-71
2021/08/24 03:06:32;;;;;;;;;;;13.00;99.90;;;;;;5016410;28;20019;-72
2021/08/24 03:09:04;;;;;;;;;;;12.90;99.90;;;;;;5016364;28;19925;-73
2021/08/24 03:11:41;;;;;;;;;;;12.90;99.90;;;;;;5000946;28;20464;-72
2021/08/24 03:14:17;;;;;;;;;;;12.80;99.90;;;;;;5016511;28;19947;-72
2021/08/24 03:16:59;;;;;;;;;;;12.80;99.90;;;;;;5016050;28;20376;-72
2021/08/24 03:19:32;;;;;;;;;;;12.80;99.90;;;;;;5017366;28;19925;-72
2021/08/24 03:22:05;;;;;;;;;;;12.80;99.90;;;;;;5017310;28;19925;-72
2021/08/24 03:24:37;;;;;;;;;;;12.70;99.90;;;;;;5016292;28;19925;-72
2021/08/24 03:27:09;;;;;;;;;;;12.70;99.90;;;;;;5016985;28;20016;-74
2021/08/24 03:29:56;;;;;;;;;;;12.70;99.90;;;;;;5016318;28;19968;-74
2021/08/24 03:32:27;;;;;;;;;;;12.70;99.90;;;;;;5033828;28;19936;-73
2021/08/24 03:34:59;;;;;;;;;;;12.70;99.90;;;;;;5000802;28;20008;-75
2021/08/24 03:37:31;;;;;;;;;;;12.70;99.90;;;;;;5017079;28;19932;-72
2021/08/24 03:40:04;;;;;;;;;;;12.70;99.90;;;;;;5033825;28;20020;-72
2021/08/24 03:42:35;;;;;;;;;;;12.60;99.90;;;;;;5033497;28;19931;-72
2021/08/24 03:45:03;;;;;;;;;;;12.60;99.90;;;;;;5015855;28;19932;-73
2021/08/24 03:47:30;;;;;;;;;;;12.50;99.90;;;;;;5015643;28;20040;-73
2021/08/24 03:50:02;;;;;;;;;;;12.60;99.90;;;;;;5016398;28;20019;-71
2021/08/24 03:52:34;;;;;;;;;;;12.60;99.90;;;;;;5033283;28;20356;-72
2021/08/24 03:55:01;;;;;;;;;;;12.60;99.90;;;;;;5015186;28;20395;-73
2021/08/24 03:57:33;;;;;;;;;;;12.60;99.90;;;;;;4999465;28;19925;-73
2021/08/24 04:00:06;;;;;;;;;;;12.60;99.90;;;;;;5015025;28;20016;-73
2021/08/24 04:02:38;;;;;;;;;;;12.60;99.90;;;;;;5007675;28;19925;-72
2021/08/24 04:05:10;;;;;;;;;;;12.60;99.90;;;;;;5015554;28;19936;-72
2021/08/24 04:07:37;;;;;;;;;;;12.60;99.90;;;;;;5032479;28;20024;-72
2021/08/24 04:10:05;;;;;;;;;;;12.60;99.90;;;;;;5014938;28;20011;-72
2021/08/24 04:12:36;;;;;;;;;;;12.60;99.90;;;;;;5014890;28;20380;-72
2021/08/24 04:15:09;;;;;;;;;;;12.60;99.90;;;;;;5015458;28;19936;-73
2021/08/24 04:17:39;;;;;;;;;;;12.60;99.90;;;;;;5014884;28;19964;-73
2021/08/24 04:20:12;;;;;;;;;;;12.60;99.90;;;;;;5015531;28;19931;-72
2021/08/24 04:22:46;;;;;;;;;;;12.60;99.90;;;;;;5014527;28;20024;-72
2021/08/24 04:25:13;;;;;;;;;;;12.60;99.90;;;;;;5014304;28;20028;-74
2021/08/24 04:27:41;;;;;;;;;;;12.60;99.90;;;;;;5014656;28;19978;-73
2021/08/24 04:30:13;;;;;;;;;;;12.60;99.90;;;;;;5032216;28;20016;-72
2021/08/24 04:32:42;;;;;;;;;;;12.70;99.90;;;;;;5032292;28;20303;-72
2021/08/24 04:35:08;;;;;;;;;;;12.60;99.90;;;;;;5032247;28;20019;-72
2021/08/24 04:37:40;;;;;;;;;;;12.60;99.90;;;;;;4999384;28;20032;-72
2021/08/24 04:40:12;;;;;;;;;;;12.60;99.90;;;;;;5014868;28;19939;-73
2021/08/24 04:42:39;;;;;;;;;;;12.60;99.90;;;;;;5032365;28;19975;-72
2021/08/24 04:45:11;;;;;;;;;;;12.60;99.90;;;;;;5031978;28;19925;-73
2021/08/24 04:47:43;;;;;;;;;;;12.70;99.90;;;;;;5032391;28;19935;-72
2021/08/24 04:50:10;;;;;;;;;;;12.60;99.90;;;;;;5014916;28;19925;-72
2021/08/24 04:52:37;;;;;;;;;;;12.60;99.90;;;;;;4998467;28;20019;-72
2021/08/24 04:55:09;;;;;;;;;;;12.60;99.90;;;;;;5031903;28;19925;-73
2021/08/24 04:57:40;;;;;;;;;;;12.60;99.90;;;;;;5015413;28;20033;-74
2021/08/24 05:00:07;;;;;;;;;;;12.60;99.90;;;;;;5014201;28;19926;-72
2021/08/24 05:02:39;;;;;;;;;;;12.60;99.90;;;;;;5032365;28;19925;-73
2021/08/24 05:05:11;;;;;;;;;;;12.60;99.90;;;;;;5015130;28;19931;-72
2021/08/24 05:07:42;;;;;;;;;;;12.60;99.90;;;;;;5014445;28;20019;-72
2021/08/24 05:10:09;;;;;;;;;;;12.50;99.90;;;;;;5014541;28;20399;-72
2021/08/24 05:12:41;;;;;;;;;;;12.60;99.90;;;;;;5014462;28;20362;-72
2021/08/24 05:15:13;;;;;;;;;;;12.60;99.90;;;;;;4998382;28;20285;-72
2021/08/24 05:17:48;;;;;;;;;;;12.60;99.90;;;;;;5014245;28;19925;-72
2021/08/24 05:20:20;;;;;;;;;;;12.60;99.90;;;;;;5015053;28;19925;-75
2021/08/24 05:22:47;;;;;;;;;;;12.70;99.90;;;;;;5014312;28;19925;-71
2021/08/24 05:25:16;;;;;;;;;;;12.70;99.90;;;;;;4997575;28;20379;-72
2021/08/24 05:27:44;;;;;;;;;;;12.70;99.90;;;;;;5031772;28;20020;-72
2021/08/24 05:30:20;;;;;;;;;;;12.70;99.90;;;;;;5014049;28;19936;-72
2021/08/24 05:32:52;;;;;;;;;;;12.70;99.90;;;;;;5015071;28;19947;-73
2021/08/24 05:35:24;;;;;;;;;;;12.70;99.90;;;;;;5031528;28;20004;-72
2021/08/24 05:37:51;;;;;;;;;;;12.70;99.90;;;;;;5014317;28;19926;-72
2021/08/24 05:40:22;;;;;;;;;;;12.70;99.90;;;;;;5014164;28;19935;-73
2021/08/24 05:42:49;;;;;;;;;;;12.70;99.90;;;;;;5014072;28;20019;-72
2021/08/24 05:45:20;;;;;;;;;;;12.80;99.90;;;;;;5014652;28;19993;-72
2021/08/24 05:47:47;;;;;;;;;;;12.80;99.90;;;;;;5031669;28;19929;-72
2021/08/24 05:50:19;;;;;;;;;;;12.80;99.90;;;;;;5031733;28;19980;-72
2021/08/24 05:52:50;;;;;;;;;;;12.80;99.90;;;;;;5031952;28;20462;-73
2021/08/24 05:55:22;;;;;;;;;;;12.80;99.90;;;;;;5031315;28;19925;-72
2021/08/24 05:57:50;;;;;;;;;;;12.90;99.90;;;;;;5013760;28;20024;-73
2021/08/24 06:00:21;;;;;;;;;;;12.90;99.90;;;;;;5032135;28;19932;-72
2021/08/24 06:02:53;;;;;;;;;;;13.00;99.90;;;;;;5013862;28;19975;-72
2021/08/24 06:05:25;;;;;;;;;;;13.00;99.90;;;;;;5031395;28;19925;-73
2021/08/24 06:07:56;;;;;;;;;;;13.00;99.90;;;;;;5013769;28;19925;-72
2021/08/24 06:10:23;;;;;;;;;;;13.00;99.90;;;;;;5014442;28;20020;-72
2021/08/24 06:12:55;;;;;;;;;;;13.00;99.90;;;;;;5035576;28;19929;-72
2021/08/24 06:15:26;;;;;;;;;;;13.00;99.90;;;;;;5034872;28;20362;-73
2021/08/24 06:17:59;;;;;;;;;;;13.10;99.90;;;;;;5002106;28;20016;-73
2021/08/24 06:20:30;;;;;;;;;;;13.10;99.90;;;;;;5017494;28;19925;-73
2021/08/24 06:23:02;;;;;;;;;;;13.20;99.90;;;;;;5001677;28;20067;-73
2021/08/24 06:25:29;;;;;;;;;;;13.20;99.90;;;;;;5017025;28;19932;-73
2021/08/24 06:28:00;;;;;;;;;;;13.10;99.90;;;;;;5034878;28;20012;-73
2021/08/24 06:30:32;;;;;;;;;;;13.20;99.90;;;;;;5001852;28;20315;-72
2021/08/24 06:33:04;;;;;;;;;;;13.20;99.90;;;;;;5018227;28;20414;-73
2021/08/24 06:35:35;;;;;;;;;;;13.20;99.90;;;;;;5017586;28;19925;-73
2021/08/24 06:38:02;;;;;;;;;;;13.20;99.90;;;;;;5034789;28;20024;-72
2021/08/24 06:40:29;;;;;;;;;;;13.20;99.90;;;;;;5000852;28;20043;-72
2021/08/24 06:42:55;;;;;;;;;;;13.30;99.90;;;;;;5034639;28;19931;-75
2021/08/24 06:45:28;;;;;;;;;;;13.30;99.90;;;;;;5016756;28;19932;-72
2021/08/24 06:48:00;;;;;;;;;;;13.30;99.90;;;;;;5017815;28;20435;-73
2021/08/24 06:50:32;;;;;;;;;;;13.30;99.90;;;;;;5034815;28;20152;-72
2021/08/24 06:53:04;;;;;;;;;;;13.40;99.90;;;;;;5034835;28;20020;-74
2021/08/24 06:55:31;;;;;;;;;;;13.40;99.90;;;;;;5016558;28;19929;-72
2021/08/24 06:58:03;;;;;;;;;;;13.40;99.90;;;;;;5017550;28;20033;-72
2021/08/24 07:00:35;;;;;;;;;;;13.40;99.90;;;;;;5034492;28;20020;-72
2021/08/24 07:03:01;;;;;;;;;;;13.40;99.90;;;;;;5034402;28;19968;-74
2021/08/24 07:05:34;;;;;;;;;;;13.50;99.90;;;;;;5016995;28;20391;-72
2021/08/24 07:08:05;;;;;;;;;;;13.50;99.90;;;;;;5017571;28;20031;-72
2021/08/24 07:10:38;;;;;;;;;;;13.50;99.90;;;;;;5016648;28;19925;-72
2021/08/24 07:13:05;;;;;;;;;;;13.60;99.90;;;;;;5016327;28;20369;-72
2021/08/24 07:15:37;;;;;;;;;;;13.50;99.90;;;;;;5016153;28;19925;-71
2021/08/24 07:18:09;;;;;;;;;;;13.50;99.90;;;;;;5034249;28;19925;-72
2021/08/24 07:20:35;;;;;;;;;;;13.50;99.90;;;;;;5016836;28;20024;-72
2021/08/24 07:23:07;;;;;;;;;;;13.50;99.90;;;;;;5016553;28;19925;-72
2021/08/24 07:25:39;;;;;;;;;;;13.50;99.90;;;;;;5016840;28;19929;-72
2021/08/24 07:28:10;;;;;;;;;;;13.60;99.90;;;;;;4999776;28;19925;-72
2021/08/24 07:30:43;;;;;;;;;;;13.50;99.90;;;;;;5000828;28;19931;-73
2021/08/24 07:33:10;;;;;;;;;;;13.60;99.90;;;;;;5016557;28;20012;-72
2021/08/24 07:35:41;;;;;;;;;;;13.60;99.90;;;;;;5016963;28;20024;-72
2021/08/24 07:38:17;;;;;;;;;;;13.70;99.90;;;;;;5033766;28;20367;-73
2021/08/24 07:40:48;;;;;;;;;;;13.70;99.90;;;;;;5017106;28;20028;-73
2021/08/24 07:43:21;;;;;;;;;;;13.70;99.90;;;;;;5033690;28;20358;-71
2021/08/24 07:45:53;;;;;;;;;;;13.80;99.90;;;;;;5000116;28;20016;-72
2021/08/24 07:48:20;;;;;;;;;;;13.70;99.90;;;;;;5033123;28;20027;-73
2021/08/24 07:50:51;;;;;;;;;;;13.80;99.90;;;;;;5016929;28;19925;-72
2021/08/24 07:53:23;;;;;;;;;;;13.80;99.90;;;;;;5015785;28;20020;-72
2021/08/24 07:55:50;;;;;;;;;;;13.80;99.90;;;;;;5033426;28;20403;-72
2021/08/24 07:58:21;;;;;;;;;;;13.90;99.90;;;;;;5016510;28;19925;-73
2021/08/24 08:00:53;;;;;;;;;;;14.00;99.90;;;;;;5033517;28;19929;-72
2021/08/24 08:03:25;;;;;;;;;;;14.00;99.90;;;;;;5033177;28;20032;-73
2021/08/24 08:05:56;;;;;;;;;;;14.00;99.90;;;;;;5033085;28;20016;-72
2021/08/24 08:08:23;;;;;;;;;;;14.00;99.90;;;;;;5033119;28;19975;-74
2021/08/24 08:10:56;;;;;;;;;;;14.00;99.90;;;;;;5015478;28;19931;-72
2021/08/24 08:13:28;;;;;;;;;;;14.10;99.90;;;;;;5016476;28;19963;-72
2021/08/24 08:16:00;;;;;;;;;;;14.10;99.90;;;;;;5014821;28;20048;-72
2021/08/24 08:18:32;;;;;;;;;;;14.20;99.90;;;;;;5016244;28;20017;-75
2021/08/24 08:21:03;;;;;;;;;;;14.30;99.90;;;;;;5015363;28;20373;-71
2021/08/24 08:23:35;;;;;;;;;;;14.30;99.90;;;;;;5032883;28;20015;-72
2021/08/24 08:26:07;;;;;;;;;;;14.30;99.90;;;;;;5014869;28;19926;-72
2021/08/24 08:28:38;;;;;;;;;;;14.40;99.90;;;;;;5016051;28;20008;-72
2021/08/24 08:31:12;;;;;;;;;;;14.50;99.90;;;;;;5033889;28;20715;-73
2021/08/24 08:33:44;;;;;;;;;;;14.50;99.90;;;;;;5015608;28;19976;-73
2021/08/24 08:36:11;;;;;;;;;;;14.60;99.90;;;;;;5016278;28;19956;-72
2021/08/24 08:38:37;;;;;;;;;;;14.50;99.90;;;;;;5000031;28;19988;-73
2021/08/24 08:41:19;;;;;;;;;;;14.50;99.90;;;;;;5016562;28;20039;-72
2021/08/24 08:43:48;;;;;;;;;;;14.40;99.90;;;;;;5034384;28;20016;-73
2021/08/24 08:46:26;;;;;;;;;;;14.40;99.90;;;;;;5016065;28;20059;-73
2021/08/24 08:49:07;;;;;;;;;;;14.50;99.90;;;;;;5016166;28;20015;-73
2021/08/24 08:51:47;;;;;;;;;;;14.50;99.90;;;;;;5016362;28;20021;-72
2021/08/24 08:54:22;;;;;;;;;;;14.50;99.90;;;;;;5017177;28;19925;-72
2021/08/24 08:56:54;;;;;;;;;;;14.50;99.90;;;;;;5017013;28;20040;-73
2021/08/24 08:59:34;;;;;;;;;;;14.50;99.90;;;;;;5033790;28;20466;-73
2021/08/24 09:02:21;;;;;;;;;;;14.40;99.90;;;;;;5016230;28;20294;-73
2021/08/24 09:04:49;;;;;;;;;;;14.40;99.90;;;;;;5015946;28;19932;-73
2021/08/24 09:07:25;;;;;;;;;;;14.40;99.90;;;;;;5015812;28;19991;-73
2021/08/24 09:09:56;;;;;;;;;;;14.50;99.90;;;;;;5033685;28;19963;-73
2021/08/24 09:12:28;;;;;;;;;;;14.50;99.90;;;;;;5015858;28;19967;-73
2021/08/24 09:14:57;;;;;;;;;;;14.50;99.90;;;;;;5033244;28;19948;-73
2021/08/24 09:17:31;;;;;;;;;;;14.50;99.90;;;;;;5015640;28;19925;-73
2021/08/24 09:20:23;;;;;;;;;;;14.50;99.90;;;;;;5033737;28;20024;-73
2021/08/24 09:22:50;;;;;;;;;;;14.50;99.90;;;;;;5015741;28;19925;-73
2021/08/24 09:25:25;;;;;;;;;;;14.60;99.90;;;;;;5015513;28;20387;-73
2021/08/24 09:27:59;;;;;;;;;;;14.60;99.90;;;;;;5015930;28;19932;-71
2021/08/24 09:30:26;;;;;;;;;;;14.60;99.90;;;;;;5033833;28;19964;-73
2021/08/24 09:33:03;;;;;;;;;;;14.60;99.90;;;;;;5032902;28;20024;-73
2021/08/24 09:35:42;;;;;;;;;;;14.50;99.90;;;;;;5015399;28;20016;-73
2021/08/24 09:38:24;;;;;;;;;;;14.50;99.90;;;;;;5015681;28;19976;-73
2021/08/24 09:40:56;;;;;;;;;;;14.50;99.90;;;;;;5015714;28;20355;-73
2021/08/24 09:43:28;;;;;;;;;;;14.50;99.90;;;;;;5032864;28;20367;-73
2021/08/24 09:46:14;;;;;;;;;;;14.50;99.90;;;;;;5018071;28;20024;-73
2021/08/24 09:48:56;;;;;;;;;;;14.60;99.90;;;;;;5020007;28;20024;-72
2021/08/24 09:51:39;;;;;;;;;;;14.50;99.90;;;;;;5037194;28;20007;-72
2021/08/24 09:54:26;;;;;;;;;;;14.60;99.90;;;;;;5019166;28;20031;-73
2021/08/24 09:56:54;;;;;;;;;;;14.60;99.90;;;;;;5019038;28;19967;-72
2021/08/24 09:59:28;;;;;;;;;;;14.50;99.90;;;;;;5036956;28;19925;-73
2021/08/24 10:01:59;;;;;;;;;;;14.60;99.90;;;;;;5003555;28;19988;-73
2021/08/24 10:04:47;;;;;;;;;;;14.60;99.90;;;;;;5020050;28;20020;-73
2021/08/24 10:07:30;;;;;;;;;;;14.60;99.90;;;;;;5036717;28;20001;-73
2021/08/24 10:10:03;;;;;;;;;;;14.60;99.90;;;;;;5020012;28;19968;-73
2021/08/24 10:12:33;;;;;;;;;;;14.60;99.90;;;;;;5018844;28;20012;-73
2021/08/24 10:15:19;;;;;;;;;;;14.60;99.90;;;;;;5019164;28;19968;-72
2021/08/24 10:18:05;;;;;;;;;;;14.70;99.90;;;;;;5036531;28;20020;-72
2021/08/24 10:20:38;;;;;;;;;;;14.70;99.90;;;;;;5018867;28;20392;-73
2021/08/24 10:23:07;;;;;;;;;;;14.70;99.90;;;;;;5036552;28;20399;-72
2021/08/24 10:25:50;;;;;;;;;;;14.80;99.90;;;;;;5018426;28;19925;-73
2021/08/24 10:28:24;;;;;;;;;;;14.80;99.90;;;;;;5002973;28;20035;-73
2021/08/24 10:30:52;;;;;;;;;;;14.90;99.90;;;;;;5018601;28;20008;-72
2021/08/24 10:33:22;;;;;;;;;;;14.90;99.90;;;;;;5018506;28;19956;-73
2021/08/24 10:35:55;;;;;;;;;;;15.00;99.90;;;;;;5018513;28;19972;-73
2021/08/24 10:38:43;;;;;;;;;;;15.00;99.90;;;;;;5002612;28;19948;-73
2021/08/24 10:41:17;;;;;;;;;;;15.10;99.90;;;;;;5018434;28;20020;-72
2021/08/24 10:43:51;;;;;;;;;;;15.20;99.90;;;;;;5017764;28;20155;-73
2021/08/24 10:46:18;;;;;;;;;;;15.20;99.90;;;;;;5017741;28;20463;-73
2021/08/24 10:48:50;;;;;;;;;;;15.40;99.90;;;;;;5019398;28;20024;-73
2021/08/24 10:51:45;;;;;;;;;;;15.70;99.90;;;;;;5019034;28;19975;-73
2021/08/24 10:54:21;;;;;;;;;;;16.00;99.90;;;;;;5018934;28;19925;-73
2021/08/24 10:56:54;;;;;;;;;;;16.20;99.90;;;;;;5017032;28;20418;-73
2021/08/24 10:59:34;;;;;;;;;;;16.40;99.90;;;;;;5002307;28;19976;-74
2021/08/24 11:02:11;;;;;;;;;;;16.60;99.90;;;;;;5035740;28;20288;-73
2021/08/24 11:04:49;;;;;;;;;;;16.60;99.90;;;;;;5018653;28;20015;-72
2021/08/24 11:07:29;;;;;;;;;;;16.80;99.90;;;;;;5035120;28;19968;-73
2021/08/24 11:10:16;;;;;;;;;;;16.90;99.90;;;;;;5018887;28;19932;-73
2021/08/24 11:12:51;;;;;;;;;;;16.90;99.90;;;;;;5018296;28;19953;-73
2021/08/24 11:15:18;;;;;;;;;;;16.90;99.90;;;;;;5017407;28;19960;-73
2021/08/24 11:17:52;;;;;;;;;;;16.90;99.90;;;;;;5017551;28;20016;-73
2021/08/24 11:20:59;;;;;;;;;;;16.90;99.90;;;;;;5018044;28;20132;-73
2021/08/24 11:23:49;;;;;;;;;;;17.00;99.90;;;;;;4938841;29;19926;-73
2021/08/24 11:26:35;;;;;;;;;;;17.10;99.90;;;;;;5014673;28;19948;-72
2021/08/24 11:29:10;;;;;;;;;;;17.20;99.90;;;;;;5017587;28;19989;-73
2021/08/24 11:31:46;;;;;;;;;;;17.20;99.90;;;;;;5035463;28;20023;-74
2021/08/24 11:34:31;;;;;;;;;;;17.10;99.90;;;;;;5001845;28;19963;-73
2021/08/24 11:37:05;;;;;;;;;;;17.10;99.90;;;;;;5017143;28;19951;-74
2021/08/24 11:39:49;;;;;;;;;;;17.10;99.90;;;;;;5017504;28;20024;-73
2021/08/24 11:42:25;;;;;;;;;;;17.10;99.90;;;;;;5001429;28;19991;-74
2021/08/24 11:44:58;;;;;;;;;;;17.10;99.90;;;;;;5034882;28;20028;-73
2021/08/24 11:47:34;;;;;;;;;;;17.10;99.90;;;;;;5016797;28;20015;-73
2021/08/24 11:50:06;;;;;;;;;;;17.00;99.90;;;;;;5017278;28;20011;-73
2021/08/24 11:52:43;;;;;;;;;;;17.00;99.90;;;;;;5034599;28;19925;-73
2021/08/24 11:55:16;;;;;;;;;;;17.00;99.90;;;;;;5016945;28;19968;-73
2021/08/24 11:57:50;;;;;;;;;;;17.00;99.90;;;;;;5016989;28;19979;-73
2021/08/24 12:00:22;;;;;;;;;;;17.10;99.90;;;;;;5016873;28;20028;-73
2021/08/24 12:02:50;;;;;;;;;;;17.20;99.90;;;;;;5016962;28;19960;-72
2021/08/24 12:05:23;;;;;;;;;;;17.20;99.90;;;;;;5017343;28;20368;-73
2021/08/24 12:08:01;;;;;;;;;;;17.20;99.90;;;;;;5034483;28;20384;-73
2021/08/24 12:10:52;;;;;;;;;;;17.10;99.90;;;;;;5017220;28;19968;-73
2021/08/24 12:13:29;;;;;;;;;;;17.10;99.90;;;;;;5034274;28;20370;-73
2021/08/24 12:16:10;;;;;;;;;;;17.00;99.90;;;;;;5034213;28;19971;-73
2021/08/24 12:18:37;;;;;;;;;;;16.90;99.90;;;;;;5016697;28;19956;-73
2021/08/24 12:21:29;;;;;;;;;;;16.90;99.90;;;;;;5017708;28;19925;-73
2021/08/24 12:23:57;;;;;;;;;;;16.90;99.90;;;;;;5000253;28;20358;-73
2021/08/24 12:26:32;;;;;;;;;;;16.90;99.90;;;;;;4999878;28;20007;-73
2021/08/24 12:29:07;;;;;;;;;;;16.90;99.90;;;;;;5000854;28;20032;-73
2021/08/24 12:31:41;;;;;;;;;;;17.00;99.90;;;;;;5016563;28;19961;-73
2021/08/24 12:34:27;;;;;;;;;;;16.90;99.90;;;;;;5016725;28;20024;-73
2021/08/24 12:36:59;;;;;;;;;;;17.00;99.90;;;;;;5015984;28;19949;-73
2021/08/24 12:39:38;;;;;;;;;;;17.00;99.90;;;;;;5016097;28;19931;-73
2021/08/24 12:42:12;;;;;;;;;;;17.10;99.90;;;;;;5016450;28;20368;-73
2021/08/24 12:44:47;;;;;;;;;;;17.20;99.90;;;;;;5015971;28;20400;-73
2021/08/24 12:47:24;;;;;;;;;;;17.30;99.90;;;;;;5016534;28;19931;-73
2021/08/24 12:49:56;;;;;;;;;;;17.40;99.90;;;;;;5016167;28;20024;-73
2021/08/24 12:52:32;;;;;;;;;;;17.60;99.90;;;;;;5033884;28;19948;-73
2021/08/24 12:55:23;;;;;;;;;;;17.80;99.90;;;;;;5017228;28;20064;-71
2021/08/24 12:57:58;;;;;;;;;;;17.90;99.90;;;;;;5033974;28;19965;-74
2021/08/24 13:00:32;;;;;;;;;;;18.10;99.90;;;;;;5016981;28;19932;-73
2021/08/24 13:03:02;;;;;;;;;;;18.10;99.90;;;;;;5016182;28;19960;-73
2021/08/24 13:05:34;;;;;;;;;;;18.20;99.90;;;;;;5015452;28;19956;-73
2021/08/24 13:08:01;;;;;;;;;;;18.20;99.90;;;;;;5033675;28;20015;-73
2021/08/24 13:10:33;;;;;;;;;;;18.20;99.90;;;;;;5016001;28;20023;-72
2021/08/24 13:13:24;;;;;;;;;;;18.30;99.90;;;;;;5033414;28;19960;-73
2021/08/24 13:15:53;;;;;;;;;;;18.50;99.90;;;;;;5033096;28;20348;-73
2021/08/24 13:18:45;;;;;;;;;;;18.70;99.90;;;;;;5015465;28;19933;-73
2021/08/24 13:21:37;;;;;;;;;;;18.80;99.90;;;;;;5016756;28;19929;-72
2021/08/24 13:24:23;;;;;;;;;;;18.90;99.90;;;;;;5016667;28;20012;-73
2021/08/24 13:26:54;;;;;;;;;;;19.20;99.90;;;;;;5015869;28;19964;-73
2021/08/24 13:29:27;;;;;;;;;;;19.30;99.90;;;;;;5016206;28;19960;-73
2021/08/24 13:31:58;;;;;;;;;;;19.40;99.90;;;;;;5033034;28;20027;-73
2021/08/24 13:34:51;;;;;;;;;;;19.60;99.90;;;;;;4999250;28;19957;-72
2021/08/24 13:37:35;;;;;;;;;;;19.70;99.90;;;;;;5014639;28;20020;-72
2021/08/24 13:40:05;;;;;;;;;;;20.00;99.90;;;;;;5015634;28;19925;-73
2021/08/24 13:42:38;;;;;;;;;;;20.20;99.90;;;;;;4999862;28;20016;-74
2021/08/24 13:45:06;;;;;;;;;;;20.40;99.90;;;;;;5032444;28;20288;-73
2021/08/24 13:47:32;;;;;;;;;;;20.40;99.90;;;;;;5015535;28;19975;-73
2021/08/24 13:50:04;;;;;;;;;;;20.50;99.90;;;;;;5014881;28;19972;-73
2021/08/24 13:52:37;;;;;;;;;;;20.40;99.90;;;;;;4999559;28;20280;-71
2021/08/24 13:55:29;;;;;;;;;;;20.40;99.90;;;;;;4999861;28;19952;-73
2021/08/24 13:58:11;;;;;;;;;;;20.40;99.90;;;;;;4998749;28;19983;-73
2021/08/24 14:00:39;;;;;;;;;;;20.60;99.90;;;;;;5032764;28;19932;-74
2021/08/24 14:03:14;;;;;;;;;;;20.90;99.90;;;;;;5016183;28;19979;-73
2021/08/24 14:05:41;;;;;;;;;;;21.00;99.90;;;;;;4998559;28;19960;-73
2021/08/24 14:08:14;;;;;;;;;;;21.10;99.90;;;;;;5016029;28;20430;-74
2021/08/24 14:10:52;;;;;;;;;;;21.20;99.90;;;;;;4999191;28;20020;-73
2021/08/24 14:13:19;;;;;;;;;;;21.30;99.90;;;;;;5015282;28;20392;-73
2021/08/24 14:15:53;;;;;;;;;;;21.40;99.90;;;;;;4999286;28;20355;-73
2021/08/24 14:18:29;;;;;;;;;;;21.50;99.90;;;;;;5015137;28;19925;-72
2021/08/24 14:21:03;;;;;;;;;;;21.50;99.90;;;;;;5033148;28;19925;-74
2021/08/24 14:23:38;;;;;;;;;;;21.40;99.90;;;;;;5015309;28;19980;-73
2021/08/24 14:26:24;;;;;;;;;;;21.30;99.90;;;;;;5032749;28;19972;-72
2021/08/24 14:28:52;;;;;;;;;;;21.20;99.90;;;;;;4998730;28;19971;-74
2021/08/24 14:31:27;;;;;;;;;;;21.40;99.90;;;;;;5033068;28;19972;-73
2021/08/24 14:34:10;;;;;;;;;;;21.60;99.90;;;;;;5018976;28;19925;-73
2021/08/24 14:36:38;;;;;;;;;;;21.80;99.90;;;;;;5018401;28;20019;-73
2021/08/24 14:39:04;;;;;;;;;;;21.80;99.90;;;;;;5018921;28;20032;-73
2021/08/24 14:41:45;;;;;;;;;;;21.90;99.90;;;;;;5018531;28;20336;-74
2021/08/24 14:44:22;;;;;;;;;;;22.20;99.90;;;;;;5036132;28;20375;-73
2021/08/24 14:46:55;;;;;;;;;;;22.60;99.90;;;;;;5018095;28;19925;-73
2021/08/24 14:49:31;;;;;;;;;;;22.90;99.90;;;;;;5019701;28;19925;-73
2021/08/24 14:52:06;;;;;;;;;;;23.00;99.90;;;;;;5002900;28;20023;-73
2021/08/24 14:54:38;;;;;;;;;;;22.80;99.90;;;;;;5035889;28;20347;-73